sensor_id;sensor_type;location;lat;lon;timestamp;pressure;altitude;pressure_sealevel;temperature;humidity
17781;BME280;8498;52.516;13.790;2023-08-21T00:01:53;101652.38;;;21.99;100.00
17781;BME280;8498;52.516;13.790;2023-08-21T00:07:15;101658.06;;;21.95;100.00
17781;BME280;8498;52.516;13.790;2023-08-21T00:12:38;101657.69;;;21.90;100.00
17781;BME280;8498;52.516;13.790;2023-08-21T00:18:01;101652.31;;;21.81;100.00
17781;BME280;8498;52.516;13.790;2023-08-21T00:23:23;101638.88;;;21.71;100.00
17781;BME280;8498;52.516;13.790;2023-08-21T00:28:45;101640.19;;;21.67;100.00
17781;BME280;8498;52.516;13.790;2023-08-21T00:34:08;101644.81;;;21.57;100.00
17781;BME280;8498;52.516;13.790;2023-08-21T00:39:30;101643.69;;;21.50;100.00
17781;BME280;8498;52.516;13.790;2023-08-21T00:44:53;101651.44;;;21.45;100.00
17781;BME280;8498;52.516;13.790;2023-08-21T00:50:15;101644.09;;;21.37;100.00
17781;BME280;8498;52.516;13.790;2023-08-21T00:55:38;101654.72;;;21.39;100.00
17781;BME280;8498;52.516;13.790;2023-08-21T01:01:01;101654.63;;;21.31;100.00
17781;BME280;8498;52.516;13.790;2023-08-21T01:06:26;101657.47;;;21.29;100.00
17781;BME280;8498;52.516;13.790;2023-08-21T01:11:57;101658.09;;;21.23;100.00
17781;BME280;8498;52.516;13.790;2023-08-21T01:17:21;101657.13;;;21.14;100.00
17781;BME280;8498;52.516;13.790;2023-08-21T01:22:44;101655.41;;;21.13;100.00
17781;BME280;8498;52.516;13.790;2023-08-21T01:28:10;101658.09;;;21.13;100.00
17781;BME280;8498;52.516;13.790;2023-08-21T01:33:35;101656.00;;;21.07;100.00
17781;BME280;8498;52.516;13.790;2023-08-21T01:38:59;101652.00;;;21.11;100.00
17781;BME280;8498;52.516;13.790;2023-08-21T01:44:22;101647.16;;;21.15;100.00
17781;BME280;8498;52.516;13.790;2023-08-21T01:49:44;101639.91;;;21.15;100.00
17781;BME280;8498;52.516;13.790;2023-08-21T01:55:07;101628.81;;;21.18;100.00
17781;BME280;8498;52.516;13.790;2023-08-21T02:00:30;101623.69;;;21.15;100.00
17781;BME280;8498;52.516;13.790;2023-08-21T02:05:56;101633.78;;;21.23;100.00
17781;BME280;8498;52.516;13.790;2023-08-21T02:11:21;101629.59;;;21.29;100.00
17781;BME280;8498;52.516;13.790;2023-08-21T02:16:45;101617.91;;;21.38;100.00
17781;BME280;8498;52.516;13.790;2023-08-21T02:22:07;101615.88;;;21.40;100.00
17781;BME280;8498;52.516;13.790;2023-08-21T02:27:30;101623.00;;;21.41;100.00
17781;BME280;8498;52.516;13.790;2023-08-21T02:32:53;101614.28;;;21.47;100.00
17781;BME280;8498;52.516;13.790;2023-08-21T02:38:16;101628.81;;;21.46;100.00
17781;BME280;8498;52.516;13.790;2023-08-21T02:43:38;101616.66;;;21.50;100.00
17781;BME280;8498;52.516;13.790;2023-08-21T02:49:01;101622.47;;;21.55;100.00
17781;BME280;8498;52.516;13.790;2023-08-21T02:54:23;101611.53;;;21.56;100.00
17781;BME280;8498;52.516;13.790;2023-08-21T02:59:45;101620.00;;;21.61;100.00
17781;BME280;8498;52.516;13.790;2023-08-21T03:05:08;101620.56;;;21.65;100.00
17781;BME280;8498;52.516;13.790;2023-08-21T03:10:32;101611.16;;;21.69;100.00
17781;BME280;8498;52.516;13.790;2023-08-21T03:15:56;101608.44;;;21.69;100.00
17781;BME280;8498;52.516;13.790;2023-08-21T03:21:18;101603.03;;;21.69;100.00
17781;BME280;8498;52.516;13.790;2023-08-21T03:26:41;101606.59;;;21.70;100.00
17781;BME280;8498;52.516;13.790;2023-08-21T03:32:03;101608.44;;;21.69;100.00
17781;BME280;8498;52.516;13.790;2023-08-21T03:37:26;101611.66;;;21.73;100.00
17781;BME280;8498;52.516;13.790;2023-08-21T03:42:49;101614.94;;;21.76;100.00
17781;BME280;8498;52.516;13.790;2023-08-21T03:48:11;101611.53;;;21.74;100.00
17781;BME280;8498;52.516;13.790;2023-08-21T03:53:35;101606.25;;;21.73;100.00
17781;BME280;8498;52.516;13.790;2023-08-21T03:58:58;101614.22;;;21.74;100.00
17781;BME280;8498;52.516;13.790;2023-08-21T04:04:20;101617.22;;;21.71;100.00
17781;BME280;8498;52.516;13.790;2023-08-21T04:09:42;101614.53;;;21.71;100.00
17781;BME280;8498;52.516;13.790;2023-08-21T04:15:05;101629.03;;;21.70;100.00
17781;BME280;8498;52.516;13.790;2023-08-21T04:20:28;101635.84;;;21.74;100.00
17781;BME280;8498;52.516;13.790;2023-08-21T04:25:50;101629.75;;;21.72;100.00
17781;BME280;8498;52.516;13.790;2023-08-21T04:31:12;101635.84;;;21.74;100.00
17781;BME280;8498;52.516;13.790;2023-08-21T04:36:37;101647.81;;;21.72;100.00
17781;BME280;8498;52.516;13.790;2023-08-21T04:41:59;101662.63;;;21.77;100.00
17781;BME280;8498;52.516;13.790;2023-08-21T04:47:26;101661.13;;;21.83;100.00
17781;BME280;8498;52.516;13.790;2023-08-21T04:52:54;101665.47;;;21.93;100.00
17781;BME280;8498;52.516;13.790;2023-08-21T04:58:16;101660.50;;;21.99;100.00
17781;BME280;8498;52.516;13.790;2023-08-21T05:03:40;101663.91;;;22.01;100.00
17781;BME280;8498;52.516;13.790;2023-08-21T05:09:03;101654.06;;;22.00;100.00
17781;BME280;8498;52.516;13.790;2023-08-21T05:14:25;101646.22;;;21.96;100.00
17781;BME280;8498;52.516;13.790;2023-08-21T05:19:48;101649.94;;;21.95;100.00
17781;BME280;8498;52.516;13.790;2023-08-21T05:25:12;101662.47;;;21.96;100.00
17781;BME280;8498;52.516;13.790;2023-08-21T05:30:38;101654.44;;;22.05;100.00
17781;BME280;8498;52.516;13.790;2023-08-21T05:36:00;101664.66;;;22.11;100.00
17781;BME280;8498;52.516;13.790;2023-08-21T05:41:23;101676.25;;;22.21;100.00
17781;BME280;8498;52.516;13.790;2023-08-21T05:46:45;101680.59;;;22.31;100.00
17781;BME280;8498;52.516;13.790;2023-08-21T05:52:09;101686.91;;;22.40;100.00
17781;BME280;8498;52.516;13.790;2023-08-21T05:57:31;101684.81;;;22.52;100.00
17781;BME280;8498;52.516;13.790;2023-08-21T06:02:56;101685.22;;;22.65;100.00
17781;BME280;8498;52.516;13.790;2023-08-21T06:08:51;101690.47;;;22.84;100.00
17781;BME280;8498;52.516;13.790;2023-08-21T06:14:13;101697.47;;;22.95;100.00
17781;BME280;8498;52.516;13.790;2023-08-21T06:19:36;101696.84;;;23.01;100.00
17781;BME280;8498;52.516;13.790;2023-08-21T06:24:59;101689.59;;;23.10;100.00
17781;BME280;8498;52.516;13.790;2023-08-21T06:30:21;101689.66;;;23.26;100.00
17781;BME280;8498;52.516;13.790;2023-08-21T06:35:44;101686.16;;;23.33;100.00
17781;BME280;8498;52.516;13.790;2023-08-21T06:41:06;101697.50;;;23.37;99.42
17781;BME280;8498;52.516;13.790;2023-08-21T06:46:33;101697.13;;;23.58;98.25
17781;BME280;8498;52.516;13.790;2023-08-21T06:51:58;101698.53;;;23.70;96.43
17781;BME280;8498;52.516;13.790;2023-08-21T06:57:21;101693.09;;;23.70;92.21
17781;BME280;8498;52.516;13.790;2023-08-21T07:02:44;101706.69;;;23.78;91.11
17781;BME280;8498;52.516;13.790;2023-08-21T07:08:07;101703.00;;;23.95;89.78
17781;BME280;8498;52.516;13.790;2023-08-21T07:13:29;101704.03;;;24.10;88.93
17781;BME280;8498;52.516;13.790;2023-08-21T07:18:52;101708.66;;;24.18;88.17
17781;BME280;8498;52.516;13.790;2023-08-21T07:24:14;101705.56;;;24.21;85.71
17781;BME280;8498;52.516;13.790;2023-08-21T07:29:38;101704.41;;;24.32;85.92
17781;BME280;8498;52.516;13.790;2023-08-21T07:35:01;101707.31;;;24.38;85.08
17781;BME280;8498;52.516;13.790;2023-08-21T07:40:23;101699.84;;;24.48;85.29
17781;BME280;8498;52.516;13.790;2023-08-21T07:45:46;101697.63;;;24.68;84.00
17781;BME280;8498;52.516;13.790;2023-08-21T07:51:08;101721.03;;;24.85;83.12
17781;BME280;8498;52.516;13.790;2023-08-21T07:56:31;101712.69;;;25.03;81.26
17781;BME280;8498;52.516;13.790;2023-08-21T08:01:54;101720.19;;;25.09;80.90
17781;BME280;8498;52.516;13.790;2023-08-21T08:07:16;101712.47;;;25.29;81.13
17781;BME280;8498;52.516;13.790;2023-08-21T08:12:41;101716.47;;;25.49;80.29
17781;BME280;8498;52.516;13.790;2023-08-21T08:18:04;101715.09;;;25.62;79.27
17781;BME280;8498;52.516;13.790;2023-08-21T08:23:29;101717.66;;;25.86;78.34
17781;BME280;8498;52.516;13.790;2023-08-21T08:28:52;101716.09;;;25.91;78.85
17781;BME280;8498;52.516;13.790;2023-08-21T08:34:14;101705.03;;;25.93;73.19
17781;BME280;8498;52.516;13.790;2023-08-21T08:39:40;101709.75;;;25.99;70.98
17781;BME280;8498;52.516;13.790;2023-08-21T08:45:03;101721.50;;;26.00;70.87
17781;BME280;8498;52.516;13.790;2023-08-21T08:50:29;101719.88;;;26.13;70.93
17781;BME280;8498;52.516;13.790;2023-08-21T08:55:52;101717.59;;;26.25;67.98
17781;BME280;8498;52.516;13.790;2023-08-21T09:01:15;101716.72;;;26.24;66.02
17781;BME280;8498;52.516;13.790;2023-08-21T09:06:38;101719.19;;;26.11;64.48
17781;BME280;8498;52.516;13.790;2023-08-21T09:12:09;101723.13;;;26.09;65.73
17781;BME280;8498;52.516;13.790;2023-08-21T09:17:32;101722.81;;;26.35;68.11
17781;BME280;8498;52.516;13.790;2023-08-21T09:36:10;101711.69;;;26.59;65.04
17781;BME280;8498;52.516;13.790;2023-08-21T09:41:33;101704.19;;;26.61;64.75
17781;BME280;8498;52.516;13.790;2023-08-21T09:46:55;101711.81;;;26.80;64.71
17781;BME280;8498;52.516;13.790;2023-08-21T09:52:18;101699.88;;;27.19;61.93
17781;BME280;8498;52.516;13.790;2023-08-21T09:57:41;101703.41;;;27.34;61.43
17781;BME280;8498;52.516;13.790;2023-08-21T10:03:06;101689.94;;;27.62;59.47
17781;BME280;8498;52.516;13.790;2023-08-21T10:08:30;101693.63;;;27.69;58.45
17781;BME280;8498;52.516;13.790;2023-08-21T10:13:53;101691.31;;;27.87;55.34
17781;BME280;8498;52.516;13.790;2023-08-21T10:19:18;101696.25;;;27.62;54.55
17781;BME280;8498;52.516;13.790;2023-08-21T10:24:40;101697.19;;;27.69;53.05
17781;BME280;8498;52.516;13.790;2023-08-21T10:30:12;101696.47;;;28.18;50.09
17781;BME280;8498;52.516;13.790;2023-08-21T10:35:36;101694.94;;;28.30;42.06
17781;BME280;8498;52.516;13.790;2023-08-21T10:41:08;101701.91;;;28.61;42.21
17781;BME280;8498;52.516;13.790;2023-08-21T10:46:49;101696.91;;;28.92;42.12
17781;BME280;8498;52.516;13.790;2023-08-21T10:52:15;101699.66;;;28.43;43.36
17781;BME280;8498;52.516;13.790;2023-08-21T10:57:42;101696.81;;;28.30;43.23
17781;BME280;8498;52.516;13.790;2023-08-21T11:03:05;101700.59;;;28.57;43.90
17781;BME280;8498;52.516;13.790;2023-08-21T11:08:27;101705.06;;;29.20;42.65
17781;BME280;8498;52.516;13.790;2023-08-21T11:13:53;101708.25;;;29.17;41.97
17781;BME280;8498;52.516;13.790;2023-08-21T11:19:16;101706.56;;;28.88;43.44
17781;BME280;8498;52.516;13.790;2023-08-21T11:24:45;101701.47;;;29.13;42.16
17781;BME280;8498;52.516;13.790;2023-08-21T11:30:10;101710.59;;;29.27;42.03
17781;BME280;8498;52.516;13.790;2023-08-21T11:35:33;101702.22;;;29.00;41.16
17781;BME280;8498;52.516;13.790;2023-08-21T11:41:01;101700.63;;;29.12;42.00
17781;BME280;8498;52.516;13.790;2023-08-21T11:46:25;101709.56;;;29.28;39.62
17781;BME280;8498;52.516;13.790;2023-08-21T11:51:48;101705.34;;;29.32;40.05
17781;BME280;8498;52.516;13.790;2023-08-21T11:57:14;101709.41;;;29.01;40.83
17781;BME280;8498;52.516;13.790;2023-08-21T12:02:37;101702.63;;;28.97;42.44
17781;BME280;8498;52.516;13.790;2023-08-21T12:07:59;101698.53;;;29.14;43.24
17781;BME280;8498;52.516;13.790;2023-08-21T12:13:22;101703.91;;;29.01;42.87
17781;BME280;8498;52.516;13.790;2023-08-21T12:18:44;101696.38;;;29.03;43.17
17781;BME280;8498;52.516;13.790;2023-08-21T12:24:07;101696.72;;;28.94;42.05
17781;BME280;8498;52.516;13.790;2023-08-21T12:29:29;101702.72;;;29.10;43.33
17781;BME280;8498;52.516;13.790;2023-08-21T12:34:52;101697.31;;;29.24;43.21
17781;BME280;8498;52.516;13.790;2023-08-21T12:40:14;101696.38;;;29.10;42.93
17781;BME280;8498;52.516;13.790;2023-08-21T12:45:36;101690.88;;;29.03;44.16
17781;BME280;8498;52.516;13.790;2023-08-21T12:50:59;101689.72;;;28.84;43.38
17781;BME280;8498;52.516;13.790;2023-08-21T12:56:22;101702.88;;;28.74;43.73
17781;BME280;8498;52.516;13.790;2023-08-21T13:01:45;101689.13;;;28.68;43.05
17781;BME280;8498;52.516;13.790;2023-08-21T13:07:08;101691.22;;;29.28;42.07
17781;BME280;8498;52.516;13.790;2023-08-21T13:12:30;101685.06;;;29.19;43.37
17781;BME280;8498;52.516;13.790;2023-08-21T13:17:52;101685.06;;;29.19;40.90
17781;BME280;8498;52.516;13.790;2023-08-21T13:23:15;101696.66;;;29.15;41.76
17781;BME280;8498;52.516;13.790;2023-08-21T13:28:37;101698.06;;;29.04;40.51
17781;BME280;8498;52.516;13.790;2023-08-21T13:34:00;101689.84;;;29.39;39.87
17781;BME280;8498;52.516;13.790;2023-08-21T13:39:23;101684.00;;;30.22;39.78
17781;BME280;8498;52.516;13.790;2023-08-21T13:44:45;101676.25;;;30.52;38.80
17781;BME280;8498;52.516;13.790;2023-08-21T13:50:08;101677.50;;;30.70;38.77
17781;BME280;8498;52.516;13.790;2023-08-21T13:55:31;101679.13;;;29.98;38.39
17781;BME280;8498;52.516;13.790;2023-08-21T14:00:54;101664.38;;;30.45;39.28
17781;BME280;8498;52.516;13.790;2023-08-21T14:06:17;101648.78;;;30.26;38.16
17781;BME280;8498;52.516;13.790;2023-08-21T14:11:40;101650.88;;;30.24;36.53
17781;BME280;8498;52.516;13.790;2023-08-21T14:17:03;101651.75;;;30.18;37.43
17781;BME280;8498;52.516;13.790;2023-08-21T14:22:26;101643.50;;;30.05;37.17
17781;BME280;8498;52.516;13.790;2023-08-21T14:27:49;101647.72;;;30.07;37.67
17781;BME280;8498;52.516;13.790;2023-08-21T14:33:11;101644.78;;;30.09;38.58
17781;BME280;8498;52.516;13.790;2023-08-21T14:38:34;101641.63;;;30.25;38.50
17781;BME280;8498;52.516;13.790;2023-08-21T14:43:56;101641.41;;;30.26;38.24
17781;BME280;8498;52.516;13.790;2023-08-21T14:49:19;101644.16;;;30.20;39.14
17781;BME280;8498;52.516;13.790;2023-08-21T14:54:42;101637.41;;;30.16;38.40
17781;BME280;8498;52.516;13.790;2023-08-21T15:00:04;101625.81;;;30.40;39.70
17781;BME280;8498;52.516;13.790;2023-08-21T15:05:27;101624.75;;;30.54;39.67
17781;BME280;8498;52.516;13.790;2023-08-21T15:10:50;101619.03;;;30.49;38.96
17781;BME280;8498;52.516;13.790;2023-08-21T15:16:13;101610.59;;;30.44;41.32
17781;BME280;8498;52.516;13.790;2023-08-21T15:21:35;101618.63;;;30.26;39.64
17781;BME280;8498;52.516;13.790;2023-08-21T15:26:58;101629.16;;;30.36;39.00
17781;BME280;8498;52.516;13.790;2023-08-21T15:32:20;101627.25;;;30.03;38.56
17781;BME280;8498;52.516;13.790;2023-08-21T15:37:43;101619.59;;;29.72;38.21
17781;BME280;8498;52.516;13.790;2023-08-21T15:43:07;101613.13;;;29.32;39.62
17781;BME280;8498;52.516;13.790;2023-08-21T15:48:31;101602.03;;;28.99;39.44
17781;BME280;8498;52.516;13.790;2023-08-21T15:53:54;101611.13;;;28.72;39.52
17781;BME280;8498;52.516;13.790;2023-08-21T15:59:16;101609.28;;;28.79;39.86
17781;BME280;8498;52.516;13.790;2023-08-21T16:04:38;101595.34;;;29.08;40.05
17781;BME280;8498;52.516;13.790;2023-08-21T16:10:01;101586.94;;;29.10;40.29
17781;BME280;8498;52.516;13.790;2023-08-21T16:15:26;101586.00;;;28.90;40.78
17781;BME280;8498;52.516;13.790;2023-08-21T16:20:48;101584.22;;;28.75;41.35
17781;BME280;8498;52.516;13.790;2023-08-21T16:26:11;101587.91;;;28.61;41.60
17781;BME280;8498;52.516;13.790;2023-08-21T16:31:33;101592.44;;;28.47;41.91
17781;BME280;8498;52.516;13.790;2023-08-21T16:36:56;101590.69;;;28.33;41.18
17781;BME280;8498;52.516;13.790;2023-08-21T16:42:18;101584.13;;;28.06;42.15
17781;BME280;8498;52.516;13.790;2023-08-21T16:47:41;101592.13;;;27.87;42.00
17781;BME280;8498;52.516;13.790;2023-08-21T16:53:03;101593.97;;;27.80;43.08
17781;BME280;8498;52.516;13.790;2023-08-21T16:58:43;101594.28;;;27.70;43.46
17781;BME280;8498;52.516;13.790;2023-08-21T17:04:08;101595.00;;;27.57;43.39
17781;BME280;8498;52.516;13.790;2023-08-21T17:09:30;101593.56;;;27.47;44.39
17781;BME280;8498;52.516;13.790;2023-08-21T17:14:53;101591.09;;;27.30;45.17
17781;BME280;8498;52.516;13.790;2023-08-21T17:20:15;101585.66;;;27.16;44.86
17781;BME280;8498;52.516;13.790;2023-08-21T17:25:39;101593.97;;;27.08;45.30
17781;BME280;8498;52.516;13.790;2023-08-21T17:31:01;101580.78;;;26.82;48.26
17781;BME280;8498;52.516;13.790;2023-08-21T17:36:24;101576.16;;;26.38;51.36
17781;BME280;8498;52.516;13.790;2023-08-21T17:41:47;101568.91;;;26.30;49.41
17781;BME280;8498;52.516;13.790;2023-08-21T17:47:09;101566.72;;;26.26;50.96
17781;BME280;8498;52.516;13.790;2023-08-21T17:52:32;101563.63;;;25.91;53.88
17781;BME280;8498;52.516;13.790;2023-08-21T17:57:54;101575.16;;;25.48;57.51
17781;BME280;8498;52.516;13.790;2023-08-21T18:03:19;101570.44;;;25.11;61.83
17781;BME280;8498;52.516;13.790;2023-08-21T18:08:42;101574.28;;;24.77;64.67
17781;BME280;8498;52.516;13.790;2023-08-21T18:14:05;101577.78;;;24.47;65.86
17781;BME280;8498;52.516;13.790;2023-08-21T18:19:27;101581.38;;;24.23;66.60
17781;BME280;8498;52.516;13.790;2023-08-21T18:25:02;101593.75;;;24.01;68.13
17781;BME280;8498;52.516;13.790;2023-08-21T18:30:33;101602.75;;;23.86;70.43
17781;BME280;8498;52.516;13.790;2023-08-21T18:35:58;101595.78;;;23.67;71.19
17781;BME280;8498;52.516;13.790;2023-08-21T18:41:26;101599.97;;;23.53;71.50
17781;BME280;8498;52.516;13.790;2023-08-21T18:46:49;101611.44;;;23.47;71.36
17781;BME280;8498;52.516;13.790;2023-08-21T18:52:11;101611.97;;;23.42;70.76
17781;BME280;8498;52.516;13.790;2023-08-21T18:57:33;101608.00;;;23.21;72.05
17781;BME280;8498;52.516;13.790;2023-08-21T19:02:56;101609.25;;;23.00;73.20
17781;BME280;8498;52.516;13.790;2023-08-21T19:08:19;101605.78;;;22.82;75.37
17781;BME280;8498;52.516;13.790;2023-08-21T19:13:42;101606.19;;;22.69;77.30
17781;BME280;8498;52.516;13.790;2023-08-21T19:19:04;101620.66;;;22.52;79.60
17781;BME280;8498;52.516;13.790;2023-08-21T19:24:27;101616.50;;;22.40;80.92
17781;BME280;8498;52.516;13.790;2023-08-21T19:29:49;101622.88;;;22.31;81.28
17781;BME280;8498;52.516;13.790;2023-08-21T19:35:11;101614.00;;;22.21;83.66
17781;BME280;8498;52.516;13.790;2023-08-21T19:40:38;101616.09;;;22.09;83.67
17781;BME280;8498;52.516;13.790;2023-08-21T19:46:00;101621.03;;;21.96;83.99
17781;BME280;8498;52.516;13.790;2023-08-21T19:51:23;101627.53;;;21.85;84.62
17781;BME280;8498;52.516;13.790;2023-08-21T19:56:46;101630.75;;;21.71;85.22
17781;BME280;8498;52.516;13.790;2023-08-21T20:02:09;101624.19;;;21.74;85.66
17781;BME280;8498;52.516;13.790;2023-08-21T20:07:32;101625.19;;;21.73;85.00
17781;BME280;8498;52.516;13.790;2023-08-21T20:12:54;101644.81;;;21.75;84.75
17781;BME280;8498;52.516;13.790;2023-08-21T20:18:17;101629.81;;;21.80;83.51
17781;BME280;8498;52.516;13.790;2023-08-21T20:23:39;101634.84;;;21.75;83.24
17781;BME280;8498;52.516;13.790;2023-08-21T20:29:02;101642.50;;;21.62;84.35
17781;BME280;8498;52.516;13.790;2023-08-21T20:34:24;101631.69;;;21.62;87.03
17781;BME280;8498;52.516;13.790;2023-08-21T20:39:47;101628.34;;;21.50;86.26
17781;BME280;8498;52.516;13.790;2023-08-21T20:45:10;101626.09;;;21.46;88.19
17781;BME280;8498;52.516;13.790;2023-08-21T20:50:35;101622.13;;;21.40;87.40
17781;BME280;8498;52.516;13.790;2023-08-21T20:55:57;101624.66;;;21.24;86.97
17781;BME280;8498;52.516;13.790;2023-08-21T21:01:21;101630.66;;;21.08;89.66
17781;BME280;8498;52.516;13.790;2023-08-21T21:06:44;101633.28;;;21.00;91.13
17781;BME280;8498;52.516;13.790;2023-08-21T21:12:06;101619.81;;;20.91;89.61
17781;BME280;8498;52.516;13.790;2023-08-21T21:17:29;101629.06;;;20.88;88.12
17781;BME280;8498;52.516;13.790;2023-08-21T21:22:52;101621.28;;;20.85;85.92
17781;BME280;8498;52.516;13.790;2023-08-21T21:28:14;101624.16;;;20.74;86.70
17781;BME280;8498;52.516;13.790;2023-08-21T21:33:36;101635.97;;;20.63;88.33
17781;BME280;8498;52.516;13.790;2023-08-21T21:38:58;101643.78;;;20.57;89.13
17781;BME280;8498;52.516;13.790;2023-08-21T21:44:21;101640.09;;;20.58;89.63
17781;BME280;8498;52.516;13.790;2023-08-21T21:49:44;101648.34;;;20.56;89.77
17781;BME280;8498;52.516;13.790;2023-08-21T21:55:07;101630.44;;;20.65;89.56
17781;BME280;8498;52.516;13.790;2023-08-21T22:00:30;101632.25;;;20.74;89.38
17781;BME280;8498;52.516;13.790;2023-08-21T22:05:54;101625.00;;;20.74;88.43
17781;BME280;8498;52.516;13.790;2023-08-21T22:11:17;101612.88;;;20.78;87.85
17781;BME280;8498;52.516;13.790;2023-08-21T22:16:40;101624.53;;;20.79;87.28
17781;BME280;8498;52.516;13.790;2023-08-21T22:22:03;101629.25;;;20.77;88.24
17781;BME280;8498;52.516;13.790;2023-08-21T22:27:25;101638.06;;;20.79;89.29
17781;BME280;8498;52.516;13.790;2023-08-21T22:32:48;101633.22;;;20.82;89.89
17781;BME280;8498;52.516;13.790;2023-08-21T22:38:11;101648.97;;;20.87;90.17
17781;BME280;8498;52.516;13.790;2023-08-21T22:43:34;101652.09;;;20.92;89.88
17781;BME280;8498;52.516;13.790;2023-08-21T22:48:56;101628.63;;;20.93;90.14
17781;BME280;8498;52.516;13.790;2023-08-21T22:54:18;101617.00;;;20.82;90.07
17781;BME280;8498;52.516;13.790;2023-08-21T22:59:41;101633.81;;;20.76;89.57
17781;BME280;8498;52.516;13.790;2023-08-21T23:05:04;101641.34;;;20.73;90.81
17781;BME280;8498;52.516;13.790;2023-08-21T23:10:26;101620.47;;;20.75;90.46
17781;BME280;8498;52.516;13.790;2023-08-21T23:15:49;101629.56;;;20.74;90.41
17781;BME280;8498;52.516;13.790;2023-08-21T23:21:12;101614.06;;;20.76;90.60
17781;BME280;8498;52.516;13.790;2023-08-21T23:26:35;101613.59;;;20.80;89.84
17781;BME280;8498;52.516;13.790;2023-08-21T23:31:57;101612.59;;;20.81;89.80
17781;BME280;8498;52.516;13.790;2023-08-21T23:37:20;101617.84;;;20.83;89.50
17781;BME280;8498;52.516;13.790;2023-08-21T23:42:42;101616.31;;;20.80;89.49
17781;BME280;8498;52.516;13.790;2023-08-21T23:48:05;101612.63;;;20.72;90.77
17781;BME280;8498;52.516;13.790;2023-08-21T23:53:28;101603.84;;;20.70;90.69
17781;BME280;8498;52.516;13.790;2023-08-21T23:58:50;101597.03;;;20.66;90.85
